Terminal Aerodrome Forecast
Issued by NWS

Home | Current Version | Previous Version | Text Only | Print | Product List | Glossary On
Versions: 1 2 3 4 5 6 7 8 9 10 11
235
FTUS42 TJSJ 230543
TAFIST
TAF
TIST 230543Z 2306/2406 07004KT P6SM FEW030
     FM231450 12014KT P6SM VCSH SCT030 SCT050
     FM232300 10011KT P6SM VCSH SCT030 SCT070 BKN110=

USA.gov is the U.S. government's official web portal to all federal, state and local government web resources and services.